Time,TemperatureF,DewpointF,PressureIn,WindDirection,WindDirectionDegrees,WindSpeedMPH,WindSpeedGustMPH,Humidity,HourlyPrecipIn,Conditions,Clouds,dailyrainin,SoftwareType,DateUTC
2013-03-31 00:04:00,66.6,60.5,29.64,SSE,155,4.0,5.8,81,0.00,RA,,0.00,WeatherDisplay:10.37,2013-03-31 05:04:00,
2013-03-31 00:09:00,66.7,60.7,29.65,South,178,4.5,6.9,81,0.00,RA,,0.00,WeatherDisplay:10.37,2013-03-31 05:09:00,
2013-03-31 00:14:00,66.7,60.7,29.65,SSE,155,3.7,6.6,81,0.00,CLR,,0.00,WeatherDisplay:10.37,2013-03-31 05:14:00,
2013-03-31 00:19:00,66.7,60.4,29.65,East,88,3.9,6.9,80,0.00,CLR,,0.00,WeatherDisplay:10.37,2013-03-31 05:19:00,
2013-03-31 00:24:00,66.7,60.4,29.64,SW,223,3.1,5.8,80,0.00,CLR,,0.00,WeatherDisplay:10.37,2013-03-31 05:24:00,
2013-03-31 00:29:00,66.6,60.2,29.64,SSW,201,3.0,5.8,80,0.00,CLR,,0.00,WeatherDisplay:10.37,2013-03-31 05:29:00,
2013-03-31 00:34:00,66.6,60.2,29.64,ESE,111,3.4,5.8,80,0.00,CLR,,0.00,WeatherDisplay:10.37,2013-03-31 05:34:00,
2013-03-31 00:39:00,66.6,60.2,29.64,South,178,3.2,6.6,80,0.00,CLR,,0.00,WeatherDisplay:10.37,2013-03-31 05:39:00,
2013-03-31 00:44:00,66.6,60.2,29.64,SSW,201,4.2,5.8,80,0.00,CLR,,0.00,WeatherDisplay:10.37,2013-03-31 05:44:00,
2013-03-31 00:49:00,66.6,60.2,29.64,SSE,155,3.7,6.9,80,0.00,CLR,,0.00,WeatherDisplay:10.37,2013-03-31 05:49:00,
2013-03-31 00:54:00,66.4,60.0,29.63,WSW,245,3.8,5.8,80,0.00,CLR,,0.00,WeatherDisplay:10.37,2013-03-31 05:54:00,
2013-03-31 00:59:00,66.6,60.2,29.63,SW,223,5.2,6.9,80,0.00,CLR,,0.00,WeatherDisplay:10.37,2013-03-31 05:59:00,
2013-03-31 01:04:00,66.4,60.0,29.63,NE,43,4.3,5.8,80,0.00,CLR,,0.00,WeatherDisplay:10.37,2013-03-31 06:04:00,
2013-03-31 01:09:00,66.4,60.0,29.63,ENE,65,3.9,8.1,80,0.00,CLR,,0.00,WeatherDisplay:10.37,2013-03-31 06:09:00,
2013-03-31 01:14:00,66.4,60.0,29.63,SSW,201,4.0,6.9,80,0.00,CLR,,0.00,WeatherDisplay:10.37,2013-03-31 06:14:00,
2013-03-31 01:19:00,66.4,60.0,29.63,SE,133,4.1,6.9,80,0.00,CLR,,0.00,WeatherDisplay:10.37,2013-03-31 06:19:00,
2013-03-31 01:24:00,66.4,60.0,29.64,SE,133,3.6,6.9,80,0.00,CLR,,0.00,WeatherDisplay:10.37,2013-03-31 06:24:00,
2013-03-31 01:29:00,66.4,60.0,29.64,SE,133,4.0,5.8,80,0.00,CLR,,0.00,WeatherDisplay:10.37,2013-03-31 06:29:00,
2013-03-31 01:34:00,66.4,60.0,29.64,SE,133,3.1,4.6,80,0.00,CLR,,0.00,WeatherDisplay:10.37,2013-03-31 06:34:00,
2013-03-31 01:39:00,66.2,59.8,29.64,SSE,155,5.6,6.9,80,0.00,CLR,,0.00,WeatherDisplay:10.37,2013-03-31 06:39:00,
2013-03-31 01:44:00,66.2,59.8,29.64,SSE,155,3.4,4.6,80,0.00,CLR,,0.00,WeatherDisplay:10.37,2013-03-31 06:44:00,
2013-03-31 01:49:00,66.0,59.7,29.64,SSE,155,3.8,5.8,80,0.00,CLR,,0.00,WeatherDisplay:10.37,2013-03-31 06:49:00,
2013-03-31 01:54:00,66.0,59.7,29.64,SE,133,3.6,5.8,80,0.00,CLR,,0.00,WeatherDisplay:10.37,2013-03-31 06:54:00,
2013-03-31 01:59:00,65.8,59.5,29.64,South,178,3.6,5.8,80,0.00,CLR,,0.00,WeatherDisplay:10.37,2013-03-31 06:59:00,
2013-03-31 02:04:00,65.8,59.5,29.64,South,178,3.4,6.9,80,0.00,BKN,,0.00,WeatherDisplay:10.37,2013-03-31 07:04:00,
2013-03-31 02:09:00,65.7,59.3,29.64,SSE,155,3.5,5.8,80,0.00,BKN,,0.00,WeatherDisplay:10.37,2013-03-31 07:09:00,
2013-03-31 02:14:00,65.7,59.3,29.64,SE,133,2.5,4.4,80,0.00,BKN,,0.00,WeatherDisplay:10.37,2013-03-31 07:14:00,
2013-03-31 02:19:00,65.5,59.1,29.64,South,178,2.8,4.6,80,0.00,BKN,,0.00,WeatherDisplay:10.37,2013-03-31 07:19:00,
2013-03-31 02:24:00,65.5,59.1,29.64,SSE,155,2.6,4.6,80,0.00,BKN,,0.00,WeatherDisplay:10.37,2013-03-31 07:24:00,
2013-03-31 02:29:00,65.3,59.0,29.65,SSE,155,2.8,4.6,80,0.00,BKN,,0.00,WeatherDisplay:10.37,2013-03-31 07:29:00,
2013-03-31 02:34:00,65.1,58.8,29.64,East,88,3.0,5.8,80,0.00,BKN,,0.00,WeatherDisplay:10.37,2013-03-31 07:34:00,
2013-03-31 02:39:00,65.1,58.8,29.64,SSE,155,3.6,5.8,80,0.00,BKN,,0.00,WeatherDisplay:10.37,2013-03-31 07:39:00,
2013-03-31 02:44:00,65.1,59.1,29.64,SSE,155,3.2,4.6,81,0.00,BKN,,0.00,WeatherDisplay:10.37,2013-03-31 07:44:00,
2013-03-31 02:49:00,64.9,59.0,29.64,South,178,2.1,3.5,81,0.00,BKN,,0.00,WeatherDisplay:10.37,2013-03-31 07:49:00,
2013-03-31 02:54:00,64.9,59.3,29.64,SE,133,2.9,4.6,82,0.00,BKN,,0.00,WeatherDisplay:10.37,2013-03-31 07:54:00,
2013-03-31 02:59:00,65.1,59.5,29.64,SSE,155,2.4,4.6,82,0.00,BKN,,0.00,WeatherDisplay:10.37,2013-03-31 07:59:00,
2013-03-31 03:04:00,64.9,59.3,29.64,SSE,155,2.2,3.5,82,0.00,CLR,,0.00,WeatherDisplay:10.37,2013-03-31 08:04:00,
2013-03-31 03:09:00,64.9,59.3,29.64,ESE,111,2.2,3.5,82,0.00,CLR,,0.00,WeatherDisplay:10.37,2013-03-31 08:09:00,
2013-03-31 03:14:00,64.8,59.1,29.64,ENE,65,2.7,4.6,82,0.00,CLR,,0.00,WeatherDisplay:10.37,2013-03-31 08:14:00,
2013-03-31 03:19:00,64.8,59.5,29.63,SE,133,2.4,5.8,83,0.00,CLR,,0.00,WeatherDisplay:10.37,2013-03-31 08:19:00,
2013-03-31 03:24:00,64.6,59.0,29.63,SSW,201,2.3,3.7,82,0.00,CLR,,0.00,WeatherDisplay:10.37,2013-03-31 08:24:00,
2013-03-31 03:29:00,64.4,59.1,29.63,SSE,155,3.1,4.6,83,0.00,CLR,,0.00,WeatherDisplay:10.37,2013-03-31 08:29:00,
2013-03-31 03:34:00,64.4,59.1,29.63,SW,223,3.5,4.6,83,0.00,CLR,,0.00,WeatherDisplay:10.37,2013-03-31 08:34:00,
2013-03-31 03:39:00,64.6,59.3,29.63,South,178,3.6,4.8,83,0.00,CLR,,0.00,WeatherDisplay:10.37,2013-03-31 08:39:00,
2013-03-31 03:44:00,64.4,59.1,29.62,SE,133,3.4,6.6,83,0.00,CLR,,0.00,WeatherDisplay:10.37,2013-03-31 08:44:00,
2013-03-31 03:49:00,64.4,59.1,29.62,South,178,3.3,6.9,83,0.00,CLR,,0.00,WeatherDisplay:10.37,2013-03-31 08:49:00,
2013-03-31 03:54:00,64.4,59.1,29.62,SSW,201,4.7,5.8,83,0.00,CLR,,0.00,WeatherDisplay:10.37,2013-03-31 08:54:00,
2013-03-31 04:00:00,64.4,59.5,29.61,SSE,155,4.1,6.9,84,0.00,CLR,,0.00,WeatherDisplay:10.37,2013-03-31 09:00:00,
2013-03-31 04:05:00,64.4,59.5,29.61,South,178,3.1,5.8,84,0.00,CLR,,0.00,WeatherDisplay:10.37,2013-03-31 09:05:00,
2013-03-31 04:10:00,64.4,59.5,29.61,SE,133,3.7,5.8,84,0.00,CLR,,0.00,WeatherDisplay:10.37,2013-03-31 09:10:00,
2013-03-31 04:15:00,64.4,59.8,29.61,NE,43,3.4,5.8,85,0.00,CLR,,0.00,WeatherDisplay:10.37,2013-03-31 09:15:00,
2013-03-31 04:20:00,64.2,59.6,29.61,South,178,4.3,6.9,85,0.00,CLR,,0.00,WeatherDisplay:10.37,2013-03-31 09:20:00,
2013-03-31 04:25:00,64.2,59.6,29.61,SE,133,4.0,6.0,85,0.00,CLR,,0.00,WeatherDisplay:10.37,2013-03-31 09:25:00,
2013-03-31 04:30:00,64.2,59.6,29.60,South,178,4.3,8.1,85,0.00,CLR,,0.00,WeatherDisplay:10.37,2013-03-31 09:30:00,
2013-03-31 04:35:00,64.2,59.6,29.60,ESE,111,2.8,4.8,85,0.00,CLR,,0.00,WeatherDisplay:10.37,2013-03-31 09:35:00,
2013-03-31 04:40:00,64.2,59.9,29.60,ESE,111,3.4,5.8,86,0.00,CLR,,0.00,WeatherDisplay:10.37,2013-03-31 09:40:00,
2013-03-31 04:45:00,64.0,60.1,29.60,SSE,155,4.4,6.9,87,0.00,CLR,,0.00,WeatherDisplay:10.37,2013-03-31 09:45:00,
2013-03-31 04:50:00,64.0,59.8,29.60,NW,313,4.1,8.1,86,0.00,CLR,,0.00,WeatherDisplay:10.37,2013-03-31 09:50:00,
2013-03-31 04:55:00,64.0,60.1,29.60,SSE,155,4.7,6.9,87,0.00,CLR,,0.00,WeatherDisplay:10.37,2013-03-31 09:55:00,
2013-03-31 05:00:00,64.0,60.1,29.60,South,178,5.2,8.1,87,0.00,CLR,,0.00,WeatherDisplay:10.37,2013-03-31 10:00:00,
2013-03-31 05:05:00,64.0,60.1,29.60,South,178,5.1,6.9,87,0.00,CLR,,0.00,WeatherDisplay:10.37,2013-03-31 10:05:00,
2013-03-31 05:10:00,64.0,60.1,29.60,NE,43,5.1,9.2,87,0.00,CLR,,0.00,WeatherDisplay:10.37,2013-03-31 10:10:00,
2013-03-31 05:15:00,64.2,60.6,29.60,South,178,4.5,6.9,88,0.00,CLR,,0.00,WeatherDisplay:10.37,2013-03-31 10:15:00,
2013-03-31 05:20:00,64.2,60.6,29.60,SSE,155,4.7,5.8,88,0.00,CLR,,0.00,WeatherDisplay:10.37,2013-03-31 10:20:00,
2013-03-31 05:25:00,64.4,60.8,29.60,SE,133,5.0,11.5,88,0.00,CLR,,0.00,WeatherDisplay:10.37,2013-03-31 10:25:00,
2013-03-31 05:30:00,64.4,60.8,29.59,South,178,5.7,10.4,88,0.00,CLR,,0.00,WeatherDisplay:10.37,2013-03-31 10:30:00,
2013-03-31 05:35:00,64.4,60.8,29.59,South,178,5.0,8.7,88,0.00,CLR,,0.00,WeatherDisplay:10.37,2013-03-31 10:35:00,
2013-03-31 05:40:00,64.4,61.1,29.59,SSE,155,5.8,9.2,89,0.00,CLR,,0.00,WeatherDisplay:10.37,2013-03-31 10:40:00,
2013-03-31 05:45:00,64.6,61.3,29.59,East,88,6.8,11.5,89,0.00,CLR,,0.00,WeatherDisplay:10.37,2013-03-31 10:45:00,
2013-03-31 05:50:00,64.6,61.3,29.59,South,178,6.9,12.7,89,0.00,CLR,,0.00,WeatherDisplay:10.37,2013-03-31 10:50:00,
2013-03-31 05:55:00,64.6,61.3,29.59,SSW,201,6.7,13.8,89,0.00,CLR,,0.00,WeatherDisplay:10.37,2013-03-31 10:55:00,
2013-03-31 06:00:00,64.6,61.3,29.59,SSE,155,6.0,11.5,89,0.00,CLR,,0.00,WeatherDisplay:10.37,2013-03-31 11:00:00,
2013-03-31 06:05:00,64.8,61.4,29.59,SE,133,4.6,10.4,89,0.00,CLR,,0.00,WeatherDisplay:10.37,2013-03-31 11:05:00,
2013-03-31 06:10:00,64.8,61.4,29.59,NE,43,8.1,15.0,89,0.00,CLR,,0.00,WeatherDisplay:10.37,2013-03-31 11:10:00,
2013-03-31 06:15:00,64.8,61.4,29.58,South,178,5.3,9.2,89,0.00,CLR,,0.00,WeatherDisplay:10.37,2013-03-31 11:15:00,
2013-03-31 06:20:00,64.8,61.4,29.58,South,178,7.4,13.8,89,0.00,CLR,,0.00,WeatherDisplay:10.37,2013-03-31 11:20:00,
2013-03-31 06:25:00,64.8,61.4,29.58,SSW,201,8.2,9.2,89,0.00,CLR,,0.00,WeatherDisplay:10.37,2013-03-31 11:25:00,
2013-03-31 06:30:00,64.8,61.8,29.58,SSW,201,5.4,12.7,90,0.00,CLR,,0.00,WeatherDisplay:10.37,2013-03-31 11:30:00,
2013-03-31 06:35:00,64.8,61.8,29.58,WSW,245,9.2,12.7,90,0.00,CLR,,0.00,WeatherDisplay:10.37,2013-03-31 11:35:00,
2013-03-31 06:40:00,64.8,61.8,29.58,SW,223,5.4,9.2,90,0.00,CLR,,0.00,WeatherDisplay:10.37,2013-03-31 11:40:00,
2013-03-31 06:45:00,64.8,61.8,29.58,NNW,335,6.7,11.5,90,0.00,CLR,,0.00,WeatherDisplay:10.37,2013-03-31 11:45:00,
2013-03-31 06:51:00,64.8,61.8,29.58,SW,223,5.7,9.2,90,0.00,CLR,,0.00,WeatherDisplay:10.37,2013-03-31 11:51:00,
2013-03-31 06:56:00,64.8,61.8,29.57,SSE,155,8.3,11.5,90,0.00,CLR,,0.00,WeatherDisplay:10.37,2013-03-31 11:56:00,
2013-03-31 07:01:00,64.9,61.9,29.57,SSW,201,8.4,13.8,90,0.00,OVC,,0.00,WeatherDisplay:10.37,2013-03-31 12:01:00,
2013-03-31 07:06:00,64.9,61.9,29.57,South,178,6.4,11.5,90,0.00,OVC,,0.00,WeatherDisplay:10.37,2013-03-31 12:06:00,
2013-03-31 07:12:00,64.9,61.9,29.57,SW,223,5.3,11.5,90,0.00,OVC,,0.00,WeatherDisplay:10.37,2013-03-31 12:12:00,
2013-03-31 07:17:00,65.1,62.1,29.56,SW,223,5.8,11.5,90,0.00,OVC,,0.00,WeatherDisplay:10.37,2013-03-31 12:17:00,
2013-03-31 07:22:00,65.1,62.1,29.56,South,178,4.8,6.9,90,0.00,OVC,,0.00,WeatherDisplay:10.37,2013-03-31 12:22:00,
2013-03-31 07:27:00,65.1,62.1,29.56,SE,133,5.1,9.2,90,0.00,OVC,,0.00,WeatherDisplay:10.37,2013-03-31 12:27:00,
2013-03-31 07:32:00,65.1,62.1,29.57,ESE,111,5.1,10.6,90,0.00,OVC,,0.00,WeatherDisplay:10.37,2013-03-31 12:32:00,
2013-03-31 07:37:00,65.1,62.1,29.58,South,178,5.6,9.2,90,0.00,OVC,,0.00,WeatherDisplay:10.37,2013-03-31 12:37:00,
2013-03-31 07:43:00,65.1,62.1,29.58,SSW,201,6.5,11.5,90,0.00,OVC,,0.00,WeatherDisplay:10.37,2013-03-31 12:43:00,
2013-03-31 07:48:00,65.1,62.1,29.58,NE,43,6.5,10.4,90,0.00,OVC,,0.00,WeatherDisplay:10.37,2013-03-31 12:48:00,
2013-03-31 07:53:00,65.1,62.1,29.58,SSW,201,5.7,11.5,90,0.00,OVC,,0.00,WeatherDisplay:10.37,2013-03-31 12:53:00,
2013-03-31 07:58:00,65.3,62.3,29.58,SE,133,5.9,9.2,90,0.00,OVC,,0.00,WeatherDisplay:10.37,2013-03-31 12:58:00,
2013-03-31 08:03:00,65.3,62.3,29.58,South,178,6.4,10.4,90,0.00,OVC,,0.00,WeatherDisplay:10.37,2013-03-31 13:03:00,
2013-03-31 08:08:00,65.3,62.3,29.60,SW,223,7.6,11.5,90,0.00,OVC,,0.00,WeatherDisplay:10.37,2013-03-31 13:08:00,
2013-03-31 08:13:00,65.3,62.3,29.60,WSW,245,7.7,11.5,90,0.00,OVC,,0.00,WeatherDisplay:10.37,2013-03-31 13:13:00,
2013-03-31 08:18:00,65.5,62.5,29.61,SSW,201,8.2,16.1,90,0.00,OVC,,0.00,WeatherDisplay:10.37,2013-03-31 13:18:00,
2013-03-31 08:23:00,65.5,61.8,29.67,NNW,335,16.1,36.8,88,0.00,OVC,,0.00,WeatherDisplay:10.37,2013-03-31 13:23:00,
2013-03-31 08:29:00,63.9,57.9,29.69,North,358,20.7,31.1,81,0.00,OVC,,0.02,WeatherDisplay:10.37,2013-03-31 13:29:00,
2013-03-31 08:34:00,61.5,57.3,29.70,NE,43,20.1,41.4,86,0.24,RA,,0.24,WeatherDisplay:10.37,2013-03-31 13:34:00,
2013-03-31 08:39:00,60.1,56.5,29.69,NNE,21,20.0,38.0,88,0.38,RA,,0.40,WeatherDisplay:10.37,2013-03-31 13:39:00,
2013-03-31 08:44:00,59.2,56.2,29.69,NNE,21,15.1,32.2,90,0.45,RA,,0.47,WeatherDisplay:10.37,2013-03-31 13:44:00,
2013-03-31 08:49:00,59.0,56.1,29.70,NNW,335,12.5,17.3,90,0.57,RA,,0.58,WeatherDisplay:10.37,2013-03-31 13:49:00,
2013-03-31 08:54:00,58.8,55.9,29.69,NNE,21,15.1,19.6,90,0.62,RA,,0.62,WeatherDisplay:10.37,2013-03-31 13:54:00,
2013-03-31 08:59:00,58.6,56.0,29.70,NE,43,13.2,18.4,91,0.63,RA,,0.64,WeatherDisplay:10.37,2013-03-31 13:59:00,
2013-03-31 09:04:00,58.6,55.7,29.70,NE,43,12.8,16.1,90,0.64,RA,,0.64,WeatherDisplay:10.37,2013-03-31 14:04:00,
2013-03-31 09:09:00,58.6,55.7,29.70,ENE,65,12.1,16.1,90,0.64,RA,,0.64,WeatherDisplay:10.37,2013-03-31 14:09:00,
2013-03-31 09:14:00,58.8,55.9,29.68,East,88,10.0,15.0,90,0.65,RA,,0.65,WeatherDisplay:10.37,2013-03-31 14:14:00,
2013-03-31 09:19:00,59.0,56.1,29.70,ENE,65,8.6,11.5,90,0.65,RA,,0.65,WeatherDisplay:10.37,2013-03-31 14:19:00,
2013-03-31 09:24:00,59.2,56.6,29.70,NE,43,9.9,11.5,91,0.65,OVC,,0.65,WeatherDisplay:10.37,2013-03-31 14:24:00,
2013-03-31 09:29:00,59.2,56.2,29.69,NE,43,10.4,13.8,90,0.63,OVC,,0.65,WeatherDisplay:10.37,2013-03-31 14:29:00,
2013-03-31 09:34:00,59.4,56.4,29.68,NE,43,9.7,12.7,90,0.42,OVC,,0.65,WeatherDisplay:10.37,2013-03-31 14:34:00,
2013-03-31 09:39:00,59.2,56.2,29.68,NE,43,10.2,13.8,90,0.26,OVC,,0.65,WeatherDisplay:10.37,2013-03-31 14:39:00,
2013-03-31 09:44:00,59.2,56.2,29.69,East,88,8.8,11.5,90,0.20,OVC,,0.65,WeatherDisplay:10.37,2013-03-31 14:44:00,
2013-03-31 09:49:00,59.4,56.4,29.69,ENE,65,5.7,12.7,90,0.08,OVC,,0.65,WeatherDisplay:10.37,2013-03-31 14:49:00,
2013-03-31 09:54:00,59.5,56.6,29.69,NE,43,10.0,13.8,90,0.03,OVC,,0.65,WeatherDisplay:10.37,2013-03-31 14:54:00,
2013-03-31 10:00:00,60.1,57.4,29.69,ENE,65,8.3,12.7,91,0.01,OVC,,0.65,WeatherDisplay:10.37,2013-03-31 15:00:00,
2013-03-31 10:05:00,60.1,57.1,29.69,NNE,21,8.7,10.4,90,0.01,SCT,,0.65,WeatherDisplay:10.37,2013-03-31 15:05:00,
2013-03-31 10:10:00,60.6,57.7,29.69,North,358,6.4,9.2,90,0.00,SCT,,0.65,WeatherDisplay:10.37,2013-03-31 15:10:00,
2013-03-31 10:15:00,60.8,57.8,29.69,ENE,65,7.5,10.5,90,0.00,SCT,,0.65,WeatherDisplay:10.37,2013-03-31 15:15:00,
2013-03-31 10:20:00,60.8,57.8,29.68,ENE,65,6.7,11.5,90,0.00,SCT,,0.65,WeatherDisplay:10.37,2013-03-31 15:20:00,
2013-03-31 10:25:00,61.2,57.9,29.69,East,88,9.8,12.7,89,0.00,SCT,,0.65,WeatherDisplay:10.37,2013-03-31 15:25:00,
2013-03-31 10:30:00,61.3,57.8,29.70,NE,43,8.5,13.2,88,0.00,SCT,,0.65,WeatherDisplay:10.37,2013-03-31 15:30:00,
2013-03-31 10:35:00,61.3,57.8,29.71,NE,43,11.3,15.0,88,0.00,SCT,,0.65,WeatherDisplay:10.37,2013-03-31 15:35:00,
2013-03-31 10:40:00,61.5,57.9,29.71,NE,43,6.9,11.5,88,0.00,SCT,,0.65,WeatherDisplay:10.37,2013-03-31 15:40:00,
2013-03-31 10:45:00,61.7,57.8,29.72,NE,43,5.8,9.2,87,0.00,SCT,,0.65,WeatherDisplay:10.37,2013-03-31 15:45:00,
2013-03-31 10:51:00,61.9,58.0,29.72,NE,43,6.9,8.1,87,0.00,SCT,,0.65,WeatherDisplay:10.37,2013-03-31 15:51:00,
2013-03-31 10:56:00,62.4,58.5,29.72,NE,43,6.3,9.2,87,0.00,SCT,,0.65,WeatherDisplay:10.37,2013-03-31 15:56:00,
2013-03-31 11:02:00,63.0,58.4,29.72,NNW,335,7.1,10.4,85,0.00,OVC,,0.65,WeatherDisplay:10.37,2013-03-31 16:02:00,
2013-03-31 11:07:00,63.0,58.4,29.72,NNE,21,6.1,8.1,85,0.00,OVC,,0.65,WeatherDisplay:10.37,2013-03-31 16:07:00,
2013-03-31 11:12:00,63.0,58.4,29.72,NNW,335,6.9,9.2,85,0.00,OVC,,0.65,WeatherDisplay:10.37,2013-03-31 16:12:00,
2013-03-31 11:17:00,63.3,58.7,29.72,East,88,5.3,6.9,85,0.00,OVC,,0.65,WeatherDisplay:10.37,2013-03-31 16:17:00,
2013-03-31 11:22:00,63.5,58.6,29.71,East,88,8.1,12.7,84,0.00,OVC,,0.65,WeatherDisplay:10.37,2013-03-31 16:22:00,
2013-03-31 11:27:00,63.7,58.8,29.71,NNE,21,6.4,8.1,84,0.00,OVC,,0.65,WeatherDisplay:10.37,2013-03-31 16:27:00,
2013-03-31 11:32:00,63.7,58.4,29.71,NNE,21,3.7,5.8,83,0.00,OVC,,0.65,WeatherDisplay:10.37,2013-03-31 16:32:00,
2013-03-31 11:37:00,64.0,58.8,29.70,East,88,4.1,6.9,83,0.00,OVC,,0.65,WeatherDisplay:10.37,2013-03-31 16:37:00,
2013-03-31 11:42:00,64.4,59.1,29.70,East,88,3.7,5.8,83,0.00,OVC,,0.65,WeatherDisplay:10.37,2013-03-31 16:42:00,
2013-03-31 11:48:00,64.8,59.8,29.71,ENE,65,6.3,9.2,84,0.00,OVC,,0.65,WeatherDisplay:10.37,2013-03-31 16:48:00,
2013-03-31 11:53:00,64.8,59.1,29.71,East,88,4.7,6.9,82,0.00,OVC,,0.65,WeatherDisplay:10.37,2013-03-31 16:53:00,
2013-03-31 11:58:00,65.1,59.5,29.71,North,358,4.0,6.2,82,0.00,OVC,,0.65,WeatherDisplay:10.37,2013-03-31 16:58:00,
2013-03-31 12:03:00,65.1,59.5,29.72,ESE,111,3.8,4.6,82,0.00,SCT,,0.65,WeatherDisplay:10.37,2013-03-31 17:03:00,
2013-03-31 12:08:00,65.1,59.5,29.72,NE,43,3.5,5.5,82,0.00,SCT,,0.65,WeatherDisplay:10.37,2013-03-31 17:08:00,
2013-03-31 12:14:00,65.1,58.8,29.73,North,358,6.2,9.2,80,0.00,SCT,,0.65,WeatherDisplay:10.37,2013-03-31 17:14:00,
2013-03-31 12:19:00,65.1,59.1,29.73,NNW,335,4.8,6.9,81,0.00,SCT,,0.65,WeatherDisplay:10.37,2013-03-31 17:19:00,
2013-03-31 12:24:00,65.1,58.8,29.73,NNW,335,5.7,8.1,80,0.00,SCT,,0.65,WeatherDisplay:10.37,2013-03-31 17:24:00,
2013-03-31 12:29:00,65.1,58.8,29.73,NNW,335,6.3,8.1,80,0.00,SCT,,0.65,WeatherDisplay:10.37,2013-03-31 17:29:00,
2013-03-31 12:34:00,65.1,59.1,29.74,North,358,5.8,8.1,81,0.00,SCT,,0.65,WeatherDisplay:10.37,2013-03-31 17:34:00,
2013-03-31 12:39:00,65.3,59.0,29.73,North,358,7.8,10.4,80,0.00,SCT,,0.65,WeatherDisplay:10.37,2013-03-31 17:39:00,
2013-03-31 12:44:00,65.3,59.0,29.73,NNW,335,8.0,10.4,80,0.00,SCT,,0.65,WeatherDisplay:10.37,2013-03-31 17:44:00,
2013-03-31 12:49:00,65.5,59.5,29.73,North,358,7.6,10.0,81,0.00,SCT,,0.65,WeatherDisplay:10.37,2013-03-31 17:49:00,
2013-03-31 12:54:00,66.0,59.7,29.73,North,358,5.7,6.9,80,0.00,SCT,,0.65,WeatherDisplay:10.37,2013-03-31 17:54:00,
2013-03-31 12:59:00,66.4,58.9,29.72,NNW,335,6.5,10.4,77,0.00,SCT,,0.65,WeatherDisplay:10.37,2013-03-31 17:59:00,
2013-03-31 13:04:00,66.6,59.8,29.72,SE,133,7.1,9.2,79,0.00,SCT,,0.65,WeatherDisplay:10.37,2013-03-31 18:04:00,
2013-03-31 13:10:00,66.6,59.1,29.72,NE,43,7.1,9.2,77,0.00,SCT,,0.65,WeatherDisplay:10.37,2013-03-31 18:10:00,
2013-03-31 13:15:00,66.6,59.5,29.72,ENE,65,5.8,6.9,78,0.00,SCT,,0.65,WeatherDisplay:10.37,2013-03-31 18:15:00,
2013-03-31 13:20:00,66.6,59.1,29.72,ENE,65,4.3,6.9,77,0.00,SCT,,0.65,WeatherDisplay:10.37,2013-03-31 18:20:00,
2013-03-31 13:25:00,66.9,60.2,29.72,East,88,4.3,8.1,79,0.00,SCT,,0.65,WeatherDisplay:10.37,2013-03-31 18:25:00,
2013-03-31 13:30:00,67.3,60.2,29.71,North,358,4.1,5.5,78,0.00,SCT,,0.65,WeatherDisplay:10.37,2013-03-31 18:30:00,
2013-03-31 13:35:00,67.5,59.6,29.72,East,88,4.6,5.8,76,0.00,SCT,,0.65,WeatherDisplay:10.37,2013-03-31 18:35:00,
2013-03-31 13:40:00,67.6,60.2,29.71,NNW,335,2.6,4.6,77,0.00,SCT,,0.65,WeatherDisplay:10.37,2013-03-31 18:40:00,
2013-03-31 13:45:00,67.8,59.6,29.71,NNE,21,8.4,9.2,75,0.00,SCT,,0.65,WeatherDisplay:10.37,2013-03-31 18:45:00,
2013-03-31 13:50:00,67.8,59.6,29.71,NE,43,6.2,9.2,75,0.00,SCT,,0.65,WeatherDisplay:10.37,2013-03-31 18:50:00,
2013-03-31 13:55:00,68.0,59.8,29.71,ENE,65,3.8,5.8,75,0.00,SCT,,0.65,WeatherDisplay:10.37,2013-03-31 18:55:00,
2013-03-31 14:00:00,68.4,60.1,29.71,NE,43,6.7,9.2,75,0.00,SCT,,0.65,WeatherDisplay:10.37,2013-03-31 19:00:00,
2013-03-31 14:05:00,68.7,59.7,29.71,North,358,5.5,6.9,73,0.00,BKN,,0.65,WeatherDisplay:10.37,2013-03-31 19:05:00,
2013-03-31 14:11:00,68.9,59.9,29.71,East,88,5.3,8.1,73,0.00,BKN,,0.65,WeatherDisplay:10.37,2013-03-31 19:11:00,
2013-03-31 14:16:00,69.3,59.1,29.71,NNW,335,7.3,10.4,70,0.00,BKN,,0.65,WeatherDisplay:10.37,2013-03-31 19:16:00,
2013-03-31 14:21:00,69.1,58.9,29.71,North,358,6.5,9.2,70,0.00,BKN,,0.65,WeatherDisplay:10.37,2013-03-31 19:21:00,
2013-03-31 14:26:00,69.4,59.6,29.71,East,88,6.8,9.2,71,0.00,BKN,,0.65,WeatherDisplay:10.37,2013-03-31 19:26:00,
2013-03-31 14:31:00,69.6,59.4,29.71,North,358,9.1,12.7,70,0.00,BKN,,0.65,WeatherDisplay:10.37,2013-03-31 19:31:00,
2013-03-31 14:37:00,69.6,59.4,29.71,ENE,65,3.5,5.8,70,0.00,BKN,,0.65,WeatherDisplay:10.37,2013-03-31 19:37:00,
2013-03-31 14:42:00,70.0,60.1,29.71,NNE,21,7.4,9.2,71,0.00,BKN,,0.65,WeatherDisplay:10.37,2013-03-31 19:42:00,
2013-03-31 14:47:00,70.2,59.9,29.70,NE,43,7.9,10.4,70,0.00,BKN,,0.65,WeatherDisplay:10.37,2013-03-31 19:47:00,
2013-03-31 14:52:00,70.2,60.3,29.70,SSE,155,4.7,6.9,71,0.00,BKN,,0.65,WeatherDisplay:10.37,2013-03-31 19:52:00,
2013-03-31 14:57:00,70.5,60.3,29.70,NNE,21,8.3,11.5,70,0.00,BKN,,0.65,WeatherDisplay:10.37,2013-03-31 19:57:00,
2013-03-31 15:02:00,70.5,60.7,29.70,NNE,21,10.2,13.8,71,0.00,BKN,,0.65,WeatherDisplay:10.37,2013-03-31 20:02:00,
2013-03-31 15:07:00,70.5,60.3,29.70,NE,43,7.5,9.2,70,0.00,BKN,,0.65,WeatherDisplay:10.37,2013-03-31 20:07:00,
2013-03-31 15:13:00,70.7,59.6,29.70,NNE,21,9.1,12.7,68,0.00,BKN,,0.65,WeatherDisplay:10.37,2013-03-31 20:13:00,
2013-03-31 15:18:00,70.9,59.8,29.70,NE,43,9.7,12.7,68,0.00,BKN,,0.65,WeatherDisplay:10.37,2013-03-31 20:18:00,
2013-03-31 15:23:00,70.9,60.6,29.70,North,358,6.7,8.1,70,0.00,BKN,,0.65,WeatherDisplay:10.37,2013-03-31 20:23:00,
2013-03-31 15:28:00,70.9,59.8,29.69,NW,313,7.9,11.5,68,0.00,BKN,,0.65,WeatherDisplay:10.37,2013-03-31 20:28:00,
2013-03-31 15:33:00,70.7,59.2,29.70,NNE,21,9.3,12.7,67,0.00,BKN,,0.65,WeatherDisplay:10.37,2013-03-31 20:33:00,
2013-03-31 15:38:00,71.1,60.0,29.70,North,358,9.1,11.0,68,0.00,BKN,,0.65,WeatherDisplay:10.37,2013-03-31 20:38:00,
2013-03-31 15:43:00,71.2,59.3,29.70,NW,313,7.7,9.5,66,0.00,BKN,,0.65,WeatherDisplay:10.37,2013-03-31 20:43:00,
2013-03-31 15:48:00,70.9,58.5,29.70,North,358,11.0,13.8,65,0.00,BKN,,0.65,WeatherDisplay:10.37,2013-03-31 20:48:00,
2013-03-31 15:53:00,70.7,59.2,29.69,NNW,335,8.3,9.2,67,0.00,BKN,,0.65,WeatherDisplay:10.37,2013-03-31 20:53:00,
2013-03-31 15:58:00,71.2,58.4,29.70,North,358,9.5,12.7,64,0.00,BKN,,0.65,WeatherDisplay:10.37,2013-03-31 20:58:00,
2013-03-31 16:03:00,71.2,58.0,29.69,North,358,9.4,16.1,63,0.00,BKN,,0.65,WeatherDisplay:10.37,2013-03-31 21:03:00,
2013-03-31 16:08:00,71.2,58.4,29.69,North,358,10.7,14.6,64,0.00,BKN,,0.65,WeatherDisplay:10.37,2013-03-31 21:08:00,
2013-03-31 16:14:00,71.6,57.9,29.69,NNE,21,10.4,12.7,62,0.00,BKN,,0.65,WeatherDisplay:10.37,2013-03-31 21:14:00,
2013-03-31 16:19:00,71.8,58.1,29.69,North,358,9.8,12.7,62,0.00,BKN,,0.65,WeatherDisplay:10.37,2013-03-31 21:19:00,
2013-03-31 16:24:00,72.0,57.8,29.69,NE,43,9.3,10.4,61,0.00,BKN,,0.65,WeatherDisplay:10.37,2013-03-31 21:24:00,
2013-03-31 16:29:00,72.1,57.0,29.69,NW,313,7.4,9.2,59,0.00,BKN,,0.65,WeatherDisplay:10.37,2013-03-31 21:29:00,
2013-03-31 16:34:00,72.3,58.1,29.68,NNE,21,7.1,10.4,61,0.00,BKN,,0.65,WeatherDisplay:10.37,2013-03-31 21:34:00,
2013-03-31 18:17:00,73.6,57.9,29.67,North,358,8.1,8.1,58,0.00,BKN,,0.65,WeatherDisplay:10.37,2013-03-31 23:17:00,
2013-03-31 18:22:00,73.6,57.9,29.67,NNE,21,5.4,8.1,58,0.00,RA,,0.65,WeatherDisplay:10.37,2013-03-31 23:22:00,
2013-03-31 18:27:00,73.6,57.9,29.67,North,358,6.9,10.4,58,0.00,RA,,0.65,WeatherDisplay:10.37,2013-03-31 23:27:00,
2013-03-31 18:32:00,73.4,56.2,29.67,NE,43,6.6,9.2,55,0.00,BKN,,0.65,WeatherDisplay:10.37,2013-03-31 23:32:00,
2013-03-31 18:37:00,73.4,56.2,29.67,NNE,21,7.4,11.5,55,0.00,BKN,,0.65,WeatherDisplay:10.37,2013-03-31 23:37:00,
2013-03-31 18:42:00,73.4,56.2,29.67,North,358,6.8,8.9,55,0.00,BKN,,0.65,WeatherDisplay:10.37,2013-03-31 23:42:00,
2013-03-31 18:47:00,73.4,55.7,29.67,North,358,6.8,9.2,54,0.00,BKN,,0.65,WeatherDisplay:10.37,2013-03-31 23:47:00,
2013-03-31 18:53:00,73.2,55.6,29.67,North,358,6.9,9.2,54,0.00,BKN,,0.65,WeatherDisplay:10.37,2013-03-31 23:53:00,
2013-03-31 18:58:00,73.0,55.4,29.67,NNW,335,6.6,10.4,54,0.00,BKN,,0.65,WeatherDisplay:10.37,2013-03-31 23:58:00,
2013-03-31 19:03:00,73.0,55.4,29.68,NNW,335,6.3,9.2,54,0.00,CLR,,0.65,WeatherDisplay:10.37,2013-04-01 00:03:00,
2013-03-31 19:08:00,73.0,55.4,29.68,NNE,21,7.1,7.1,54,0.00,CLR,,0.65,WeatherDisplay:10.37,2013-04-01 00:08:00,
2013-03-31 19:13:00,72.9,56.2,29.68,NNE,21,3.7,5.8,56,0.00,CLR,,0.65,WeatherDisplay:10.37,2013-04-01 00:13:00,
2013-03-31 19:18:00,72.7,56.1,29.68,North,358,4.8,6.9,56,0.00,CLR,,0.65,WeatherDisplay:10.37,2013-04-01 00:18:00,
2013-03-31 19:23:00,72.3,56.2,29.68,NNE,21,3.9,5.8,57,0.00,CLR,,0.65,WeatherDisplay:10.37,2013-04-01 00:23:00,
2013-03-31 19:28:00,71.8,56.2,29.68,North,358,4.2,5.8,58,0.00,CLR,,0.65,WeatherDisplay:10.37,2013-04-01 00:28:00,
2013-03-31 19:33:00,71.6,56.0,29.68,NNE,21,2.6,3.5,58,0.00,CLR,,0.65,WeatherDisplay:10.37,2013-04-01 00:33:00,
2013-03-31 19:38:00,71.4,56.3,29.68,NE,43,2.4,3.5,59,0.00,CLR,,0.65,WeatherDisplay:10.37,2013-04-01 00:38:00,
2013-03-31 19:43:00,71.2,56.6,29.68,NNE,21,1.5,2.3,60,0.00,CLR,,0.65,WeatherDisplay:10.37,2013-04-01 00:43:00,
2013-03-31 19:48:00,71.2,56.6,29.68,North,358,2.1,3.5,60,0.00,CLR,,0.65,WeatherDisplay:10.37,2013-04-01 00:48:00,
2013-03-31 19:53:00,70.9,56.8,29.68,NE,43,1.4,3.5,61,0.00,CLR,,0.65,WeatherDisplay:10.37,2013-04-01 00:53:00,
2013-03-31 19:58:00,70.9,56.3,29.69,NNW,335,1.4,2.3,60,0.00,CLR,,0.65,WeatherDisplay:10.37,2013-04-01 00:58:00,
2013-03-31 20:03:00,70.5,56.4,29.69,North,358,2.1,3.3,61,0.00,CLR,,0.65,WeatherDisplay:10.37,2013-04-01 01:03:00,
2013-03-31 20:08:00,70.2,56.1,29.69,NNW,335,2.4,3.5,61,0.00,CLR,,0.65,WeatherDisplay:10.37,2013-04-01 01:08:00,
2013-03-31 20:13:00,69.8,55.7,29.69,North,358,1.6,2.3,61,0.00,CLR,,0.65,WeatherDisplay:10.37,2013-04-01 01:13:00,
2013-03-31 20:18:00,69.6,56.0,29.69,NNW,335,1.3,2.3,62,0.00,CLR,,0.65,WeatherDisplay:10.37,2013-04-01 01:18:00,
2013-03-31 20:23:00,69.4,55.9,29.69,NW,313,1.5,2.3,62,0.00,CLR,,0.65,WeatherDisplay:10.37,2013-04-01 01:23:00,
2013-03-31 20:28:00,69.4,56.3,29.69,NW,313,1.6,2.3,63,0.00,CLR,,0.65,WeatherDisplay:10.37,2013-04-01 01:28:00,
2013-03-31 20:33:00,69.3,56.1,29.69,NW,313,2.1,2.3,63,0.00,CLR,,0.65,WeatherDisplay:10.37,2013-04-01 01:33:00,
2013-03-31 20:38:00,68.9,55.8,29.69,NW,313,2.2,3.5,63,0.00,CLR,,0.65,WeatherDisplay:10.37,2013-04-01 01:38:00,
2013-03-31 20:43:00,68.5,55.9,29.70,North,358,2.5,3.5,64,0.00,CLR,,0.65,WeatherDisplay:10.37,2013-04-01 01:43:00,
2013-03-31 20:48:00,68.2,55.5,29.70,North,358,2.6,3.5,64,0.00,CLR,,0.65,WeatherDisplay:10.37,2013-04-01 01:48:00,
2013-03-31 20:53:00,67.6,55.5,29.70,NNW,335,3.4,4.6,65,0.00,CLR,,0.65,WeatherDisplay:10.37,2013-04-01 01:53:00,
2013-03-31 20:58:00,67.1,54.9,29.70,North,358,3.5,4.6,65,0.00,CLR,,0.65,WeatherDisplay:10.37,2013-04-01 01:58:00,
2013-03-31 21:03:00,66.6,54.8,29.70,North,358,3.8,4.6,66,0.00,CLR,,0.65,WeatherDisplay:10.37,2013-04-01 02:03:00,
2013-03-31 21:08:00,66.2,54.5,29.71,North,358,3.5,4.6,66,0.00,CLR,,0.65,WeatherDisplay:10.37,2013-04-01 02:08:00,
2013-03-31 21:13:00,66.0,54.3,29.70,NNW,335,2.5,3.5,66,0.00,CLR,,0.65,WeatherDisplay:10.37,2013-04-01 02:13:00,
2013-03-31 21:18:00,65.8,54.2,29.71,North,358,1.6,2.3,66,0.00,CLR,,0.65,WeatherDisplay:10.37,2013-04-01 02:18:00,
2013-03-31 21:23:00,65.8,54.6,29.71,NNW,335,0.3,1.1,67,0.00,CLR,,0.65,WeatherDisplay:10.37,2013-04-01 02:23:00,
2013-03-31 21:28:00,66.0,54.7,29.71,NE,43,0.0,0.0,67,0.00,CLR,,0.65,WeatherDisplay:10.37,2013-04-01 02:28:00,
2013-03-31 21:33:00,66.2,54.9,29.71,North,358,0.4,1.1,67,0.00,CLR,,0.65,WeatherDisplay:10.37,2013-04-01 02:33:00,
2013-03-31 21:38:00,66.2,54.9,29.72,North,358,1.5,2.3,67,0.00,CLR,,0.65,WeatherDisplay:10.37,2013-04-01 02:38:00,
2013-03-31 21:44:00,66.0,54.3,29.72,North,358,2.0,2.4,66,0.00,CLR,,0.65,WeatherDisplay:10.37,2013-04-01 02:44:00,
2013-03-31 21:49:00,65.8,54.2,29.72,North,358,2.4,3.5,66,0.00,CLR,,0.65,WeatherDisplay:10.37,2013-04-01 02:49:00,
2013-03-31 21:54:00,65.3,54.1,29.72,North,358,2.9,3.5,67,0.00,CLR,,0.65,WeatherDisplay:10.37,2013-04-01 02:54:00,
2013-03-31 21:59:00,64.8,53.5,29.72,North,358,2.2,2.5,67,0.00,CLR,,0.65,WeatherDisplay:10.37,2013-04-01 02:59:00,
2013-03-31 22:04:00,64.8,53.5,29.72,NNW,335,1.2,2.3,67,0.00,CLR,,0.65,WeatherDisplay:10.37,2013-04-01 03:04:00,
2013-03-31 22:09:00,64.8,53.9,29.72,NE,43,1.3,2.3,68,0.00,CLR,,0.65,WeatherDisplay:10.37,2013-04-01 03:09:00,
2013-03-31 22:14:00,64.8,53.9,29.72,North,358,1.6,2.3,68,0.00,CLR,,0.65,WeatherDisplay:10.37,2013-04-01 03:14:00,
2013-03-31 22:19:00,64.8,53.9,29.72,NNW,335,1.8,2.3,68,0.00,CLR,,0.65,WeatherDisplay:10.37,2013-04-01 03:19:00,
2013-03-31 22:24:00,64.6,53.8,29.73,NNW,335,1.2,2.3,68,0.00,CLR,,0.65,WeatherDisplay:10.37,2013-04-01 03:24:00,
2013-03-31 22:29:00,64.6,53.8,29.73,North,358,1.0,2.2,68,0.00,CLR,,0.65,WeatherDisplay:10.37,2013-04-01 03:29:00,
2013-03-31 22:34:00,64.6,53.8,29.72,North,358,1.4,2.3,68,0.00,CLR,,0.65,WeatherDisplay:10.37,2013-04-01 03:34:00,
2013-03-31 22:39:00,64.4,53.6,29.73,North,358,1.8,2.3,68,0.00,CLR,,0.65,WeatherDisplay:10.37,2013-04-01 03:39:00,
2013-03-31 22:44:00,64.0,53.3,29.73,North,358,1.4,2.3,68,0.00,CLR,,0.65,WeatherDisplay:10.37,2013-04-01 03:44:00,
2013-03-31 22:49:00,64.0,53.3,29.73,North,358,1.6,2.3,68,0.00,CLR,,0.65,WeatherDisplay:10.37,2013-04-01 03:49:00,
2013-03-31 22:54:00,63.7,52.9,29.73,North,358,2.0,2.3,68,0.00,CLR,,0.65,WeatherDisplay:10.37,2013-04-01 03:54:00,
2013-03-31 22:59:00,63.5,52.7,29.73,North,358,1.5,2.3,68,0.00,CLR,,0.65,WeatherDisplay:10.37,2013-04-01 03:59:00,
2013-03-31 23:00:00,63.5,52.7,29.73,North,358,1.5,2.3,68,0.00,CLR,,0.65,WeatherDisplay:10.37,2013-04-01 04:00:00,
2013-03-31 23:01:00,63.5,52.7,29.73,North,358,1.4,2.3,68,0.00,CLR,,0.65,WeatherDisplay:10.37,2013-04-01 04:01:00,
2013-03-31 23:07:00,63.3,53.0,29.73,NNW,335,1.8,2.3,69,0.00,CLR,,0.65,WeatherDisplay:10.37,2013-04-01 04:07:00,
2013-03-31 23:12:00,63.3,53.0,29.73,North,358,1.6,2.3,69,0.00,CLR,,0.65,WeatherDisplay:10.37,2013-04-01 04:12:00,
2013-03-31 23:14:00,63.1,52.8,29.73,North,358,1.6,2.3,69,0.00,CLR,,0.65,WeatherDisplay:10.37,2013-04-01 04:14:00,
2013-03-31 23:19:00,63.0,52.6,29.73,North,358,0.8,1.3,69,0.00,CLR,,0.65,WeatherDisplay:10.37,2013-04-01 04:19:00,
2013-03-31 23:24:00,63.0,52.6,29.73,North,358,0.4,1.1,69,0.00,CLR,,0.65,WeatherDisplay:10.37,2013-04-01 04:24:00,
2013-03-31 23:29:00,63.0,52.6,29.74,ESE,111,1.1,1.3,69,0.00,CLR,,0.65,WeatherDisplay:10.37,2013-04-01 04:29:00,
2013-03-31 23:34:00,63.0,52.6,29.74,SE,133,0.9,1.1,69,0.00,CLR,,0.65,WeatherDisplay:10.37,2013-04-01 04:34:00,
2013-03-31 23:39:00,63.0,52.6,29.74,ESE,111,0.0,0.0,69,0.00,CLR,,0.65,WeatherDisplay:10.37,2013-04-01 04:39:00,
2013-03-31 23:44:00,62.8,52.8,29.73,ESE,111,0.0,0.0,70,0.00,CLR,,0.65,WeatherDisplay:10.37,2013-04-01 04:44:00,
2013-03-31 23:49:00,62.6,52.7,29.73,SSE,155,0.0,0.0,70,0.00,CLR,,0.65,WeatherDisplay:10.37,2013-04-01 04:49:00,
2013-03-31 23:54:00,62.4,52.5,29.73,SSE,155,0.2,1.1,70,0.00,CLR,,0.65,WeatherDisplay:10.37,2013-04-01 04:54:00,
2013-03-31 23:59:00,62.2,52.3,29.73,SE,133,0.9,1.1,70,0.00,CLR,,0.65,WeatherDisplay:10.37,2013-04-01 04:59:00,